createdAt,value
2022-09-24T00:01:16.173Z,5.37
2022-09-24T00:03:46.855Z,5.23
2022-09-24T00:06:15.318Z,4.97
2022-09-24T00:08:43.469Z,4.90
2022-09-24T00:11:14.548Z,5.30
2022-09-24T00:13:44.502Z,4.70
2022-09-24T00:16:15.544Z,4.77
2022-09-24T00:18:44.877Z,5.10
2022-09-24T00:21:15.543Z,4.80
2022-09-24T00:23:44.389Z,5.13
2022-09-24T00:26:30.792Z,5.10
2022-09-24T00:29:01.115Z,4.83
2022-09-24T00:31:30.281Z,4.77
2022-09-24T00:33:59.704Z,4.73
2022-09-24T00:36:28.893Z,4.40
2022-09-24T00:38:59.827Z,5.17
2022-09-24T00:41:30.717Z,5.20
2022-09-24T00:44:01.926Z,5.83
2022-09-24T00:46:34.565Z,5.67
2022-09-24T00:49:14.708Z,5.27
2022-09-24T00:51:47.206Z,5.47
2022-09-24T00:54:20.961Z,5.53
2022-09-24T00:56:52.037Z,5.30
2022-09-24T00:59:25.536Z,5.23
2022-09-24T01:01:59.559Z,5.30
2022-09-24T01:04:30.144Z,5.53
2022-09-24T01:07:00.692Z,5.80
2022-09-24T01:09:33.143Z,5.60
2022-09-24T01:12:11.621Z,5.10
2022-09-24T01:15:00.326Z,5.03
2022-09-24T01:17:38.727Z,5.87
2022-09-24T01:20:37.795Z,5.67
2022-09-24T01:23:29.579Z,6.10
2022-09-24T01:26:20.231Z,5.27
2022-09-24T01:29:06.830Z,5.30
2022-09-24T01:31:44.766Z,5.10
2022-09-24T01:34:24.428Z,4.60
2022-09-24T01:36:55.574Z,5.17
2022-09-24T01:39:26.127Z,5.30
2022-09-24T01:41:57.496Z,5.60
2022-09-24T01:44:26.252Z,5.50
2022-09-24T01:46:59.606Z,4.93
2022-09-24T01:49:28.532Z,5.30
2022-09-24T01:52:01.678Z,5.60
2022-09-24T01:54:36.226Z,5.00
2022-09-24T01:57:11.115Z,5.80
2022-09-24T01:59:45.092Z,5.90
2022-09-24T02:02:20.651Z,6.07
2022-09-24T02:04:55.138Z,5.97
2022-09-24T02:07:28.810Z,6.37
2022-09-24T02:09:57.217Z,6.00
2022-09-24T02:12:29.874Z,6.10
2022-09-24T02:15:03.750Z,6.00
2022-09-24T02:17:38.536Z,5.03
2022-09-24T02:20:14.943Z,5.60
2022-09-24T02:22:45.914Z,5.93
2022-09-24T02:25:21.483Z,5.57
2022-09-24T02:27:50.364Z,5.83
2022-09-24T02:30:19.109Z,5.70
2022-09-24T02:32:51.214Z,5.90
2022-09-24T02:35:20.216Z,5.70
2022-09-24T02:37:50.221Z,5.23
2022-09-24T02:40:18.735Z,5.80
2022-09-24T02:42:50.862Z,5.47
2022-09-24T02:45:19.252Z,5.40
2022-09-24T02:47:49.172Z,5.40
2022-09-24T02:50:17.716Z,5.20
2022-09-24T02:52:46.118Z,5.57
2022-09-24T02:55:14.378Z,5.57
2022-09-24T02:57:42.488Z,5.83
2022-09-24T03:00:12.575Z,5.63
2022-09-24T03:02:41.869Z,5.87
2022-09-24T03:05:11.765Z,5.67
2022-09-24T03:07:41.739Z,6.13
2022-09-24T03:10:11.167Z,5.60
2022-09-24T03:12:39.321Z,6.30
2022-09-24T03:15:08.241Z,6.00
2022-09-24T03:17:37.036Z,6.03
2022-09-24T03:20:06.143Z,5.70
2022-09-24T03:22:36.278Z,5.83
2022-09-24T03:25:05.208Z,5.67
2022-09-24T03:27:34.403Z,5.70
2022-09-24T03:30:20.305Z,5.97
2022-09-24T03:32:49.889Z,5.70
2022-09-24T03:35:18.329Z,6.00
2022-09-24T03:37:50.621Z,5.60
2022-09-24T03:40:19.267Z,5.13
2022-09-24T03:42:47.712Z,5.10
2022-09-24T03:45:17.077Z,5.53
2022-09-24T03:47:45.535Z,5.60
2022-09-24T03:50:13.954Z,6.03
2022-09-24T03:52:42.717Z,5.67
2022-09-24T03:55:13.548Z,5.17
2022-09-24T03:57:41.971Z,5.60
2022-09-24T04:00:11.904Z,5.90
2022-09-24T04:02:41.285Z,6.20
2022-09-24T04:05:10.401Z,5.77
2022-09-24T04:07:39.125Z,5.60
2022-09-24T04:10:09.104Z,5.67
2022-09-24T04:12:38.836Z,5.30
2022-09-24T04:15:08.271Z,5.70
2022-09-24T04:17:39.076Z,6.03
2022-09-24T04:20:09.239Z,6.10
2022-09-24T04:22:37.859Z,5.57
2022-09-24T04:25:09.221Z,5.60
2022-09-24T04:27:42.593Z,5.47
2022-09-24T04:30:13.110Z,5.67
2022-09-24T04:32:41.456Z,5.47
2022-09-24T04:35:11.007Z,5.93
2022-09-24T04:37:39.669Z,5.97
2022-09-24T04:40:12.758Z,5.60
2022-09-24T04:42:43.215Z,5.57
2022-09-24T04:45:12.454Z,5.57
2022-09-24T04:47:42.182Z,5.10
2022-09-24T04:50:13.683Z,5.20
2022-09-24T04:52:42.110Z,5.70
2022-09-24T04:55:11.088Z,5.70
2022-09-24T04:57:42.146Z,6.07
2022-09-24T05:00:17.675Z,5.83
2022-09-24T05:02:47.084Z,6.17
2022-09-24T05:05:16.635Z,6.03
2022-09-24T05:07:47.809Z,7.17
2022-09-24T05:10:16.126Z,6.73
2022-09-24T05:12:46.945Z,6.33
2022-09-24T05:15:18.496Z,6.10
2022-09-24T05:17:50.237Z,5.43
2022-09-24T05:20:23.923Z,5.00
2022-09-24T05:22:53.439Z,5.37
2022-09-24T05:25:24.479Z,5.07
2022-09-24T05:27:53.437Z,5.20
2022-09-24T05:30:25.064Z,5.37
2022-09-24T05:32:53.633Z,4.90
2022-09-24T05:35:23.408Z,5.20
2022-09-24T05:37:53.880Z,5.23
2022-09-24T05:40:41.260Z,5.37
2022-09-24T05:43:09.732Z,5.33
2022-09-24T05:45:40.377Z,5.83
2022-09-24T05:48:08.537Z,5.07
2022-09-24T05:50:36.734Z,5.10
2022-09-24T05:53:06.393Z,5.70
2022-09-24T05:55:37.019Z,6.37
2022-09-24T05:58:11.797Z,6.47
2022-09-24T06:00:42.616Z,6.50
2022-09-24T06:03:15.043Z,7.17
2022-09-24T06:05:47.295Z,6.70
2022-09-24T06:08:16.888Z,7.63
2022-09-24T06:10:47.712Z,7.90
2022-09-24T06:13:19.409Z,8.60
2022-09-24T06:15:49.444Z,9.53
2022-09-24T06:18:19.818Z,9.30
2022-09-24T06:20:49.333Z,8.20
2022-09-24T06:23:18.264Z,7.80
2022-09-24T06:25:51.179Z,7.67
2022-09-24T06:28:19.608Z,7.20
2022-09-24T06:30:49.624Z,7.33
2022-09-24T06:33:18.052Z,7.03
2022-09-24T06:35:46.721Z,6.90
2022-09-24T06:38:17.180Z,7.03
2022-09-24T06:40:47.375Z,6.40
2022-09-24T06:43:18.279Z,6.90
2022-09-24T06:45:46.994Z,6.47
2022-09-24T06:48:19.029Z,6.90
2022-09-24T06:50:47.828Z,7.27
2022-09-24T06:53:16.880Z,7.57
2022-09-24T06:55:46.832Z,7.43
2022-09-24T06:58:17.649Z,7.83
2022-09-24T07:00:59.331Z,7.90
2022-09-24T07:03:31.517Z,7.57
2022-09-24T07:06:03.681Z,8.00
2022-09-24T07:08:32.292Z,8.47
2022-09-24T07:11:00.902Z,8.37
2022-09-24T07:13:29.975Z,8.37
2022-09-24T07:15:58.352Z,8.47
2022-09-24T07:18:26.553Z,9.10
2022-09-24T07:20:57.580Z,8.83
2022-09-24T07:23:29.616Z,9.40
2022-09-24T07:25:58.522Z,9.53
2022-09-24T07:28:27.325Z,9.30
2022-09-24T07:31:00.548Z,8.90
2022-09-24T07:33:29.986Z,9.33
2022-09-24T07:36:02.361Z,9.27
2022-09-24T07:38:31.177Z,9.37
2022-09-24T07:41:00.829Z,10.07
2022-09-24T07:43:29.343Z,10.07
2022-09-24T07:45:58.450Z,9.97
2022-09-24T07:48:27.044Z,11.17
2022-09-24T07:50:57.826Z,10.03
2022-09-24T07:53:27.997Z,10.03
2022-09-24T07:56:01.418Z,10.27
2022-09-24T07:58:30.133Z,10.27
2022-09-24T08:00:59.258Z,10.00
2022-09-24T08:03:33.331Z,10.50
2022-09-24T08:06:03.041Z,10.60
2022-09-24T08:08:33.440Z,11.30
2022-09-24T08:11:05.006Z,11.10
2022-09-24T08:13:34.539Z,11.13
2022-09-24T08:16:06.948Z,10.93
2022-09-24T08:18:35.823Z,10.53
2022-09-24T08:21:06.793Z,10.40
2022-09-24T08:23:38.347Z,9.73
2022-09-24T08:26:10.203Z,10.03
2022-09-24T08:28:40.122Z,10.20
2022-09-24T08:31:13.155Z,9.90
2022-09-24T08:33:42.241Z,9.47
2022-09-24T08:36:13.230Z,9.67
2022-09-24T08:38:43.608Z,9.67
2022-09-24T08:41:27.224Z,9.23
2022-09-24T08:44:05.786Z,8.80
2022-09-24T08:46:56.278Z,8.73
2022-09-24T08:49:32.569Z,8.67
2022-09-24T08:52:24.738Z,8.70
2022-09-24T08:54:56.150Z,9.07
2022-09-24T08:57:24.653Z,8.83
2022-09-24T08:59:54.934Z,8.00
2022-09-24T09:02:38.717Z,7.97
2022-09-24T09:05:15.825Z,7.40
2022-09-24T09:07:51.729Z,7.87
2022-09-24T09:10:29.239Z,8.10
2022-09-24T09:13:03.383Z,7.33
2022-09-24T09:15:35.618Z,7.20
2022-09-24T09:18:13.120Z,7.67
2022-09-24T09:20:43.833Z,7.77
2022-09-24T09:23:20.050Z,7.60
2022-09-24T09:25:54.244Z,7.40
2022-09-24T09:28:22.425Z,7.93
2022-09-24T09:31:07.193Z,7.90
2022-09-24T09:33:59.906Z,7.50
2022-09-24T09:36:43.450Z,7.30
2022-09-24T09:39:24.824Z,7.27
2022-09-24T09:42:04.018Z,6.73
2022-09-24T09:44:39.310Z,6.50
2022-09-24T09:47:21.568Z,6.23
2022-09-24T09:49:53.697Z,6.10
2022-09-24T09:52:25.084Z,6.00
2022-09-24T09:54:53.693Z,6.00
2022-09-24T09:57:28.785Z,6.53
2022-09-24T09:59:57.212Z,6.90
2022-09-24T10:02:28.851Z,6.27
2022-09-24T10:04:59.732Z,7.50
2022-09-24T10:07:28.116Z,6.60
2022-09-24T10:10:05.661Z,6.13
2022-09-24T10:12:38.270Z,6.10
2022-09-24T10:15:20.065Z,6.30
2022-09-24T10:17:54.353Z,6.23
2022-09-24T10:20:28.172Z,6.60
2022-09-24T10:23:01.999Z,6.23
2022-09-24T10:25:33.202Z,7.33
2022-09-24T10:28:22.720Z,6.00
2022-09-24T10:30:58.604Z,6.43
2022-09-24T10:33:28.272Z,6.60
2022-09-24T10:36:08.167Z,5.87
2022-09-24T10:38:36.427Z,5.27
2022-09-24T10:41:15.985Z,5.90
2022-09-24T10:43:58.993Z,5.57
2022-09-24T10:46:42.762Z,5.17
2022-09-24T10:49:23.833Z,4.57
2022-09-24T10:52:02.304Z,5.63
2022-09-24T10:54:45.344Z,5.10
2022-09-24T10:57:25.475Z,4.43
2022-09-24T11:00:05.863Z,4.80
2022-09-24T11:03:09.820Z,5.10
2022-09-24T11:05:42.917Z,4.80
2022-09-24T11:08:22.789Z,4.77
2022-09-24T11:11:18.015Z,5.30
2022-09-24T11:13:57.173Z,4.60
2022-09-24T11:16:51.784Z,4.20
2022-09-24T11:19:33.973Z,4.57
2022-09-24T11:22:13.109Z,4.47
2022-09-24T11:25:07.888Z,4.50
2022-09-24T11:27:52.949Z,4.53
2022-09-24T11:30:25.355Z,4.70
2022-09-24T11:33:22.843Z,4.03
2022-09-24T11:36:14.411Z,3.93
2022-09-24T11:39:02.178Z,4.00
2022-09-24T11:41:41.740Z,3.40
2022-09-24T11:44:41.764Z,3.90
2022-09-24T11:47:26.378Z,5.17
2022-09-24T11:50:15.769Z,4.70
2022-09-24T11:52:49.947Z,4.30
2022-09-24T11:55:24.222Z,4.03
2022-09-24T11:57:58.548Z,3.23
2022-09-24T12:00:32.822Z,3.83
2022-09-24T12:03:05.436Z,3.73
2022-09-24T12:05:39.851Z,3.60
2022-09-24T12:08:14.651Z,4.20
2022-09-24T12:10:47.346Z,3.13
2022-09-24T12:13:20.616Z,2.90
2022-09-24T12:15:54.355Z,3.07
2022-09-24T12:18:27.551Z,3.30
2022-09-24T12:21:07.357Z,3.20
2022-09-24T12:23:41.211Z,3.17
2022-09-24T12:26:11.861Z,2.35
2022-09-24T12:29:05.752Z,3.20
2022-09-24T12:32:01.036Z,2.42
2022-09-24T12:34:39.046Z,2.22
2022-09-24T12:37:12.263Z,2.88
2022-09-24T12:39:49.707Z,2.40
2022-09-24T12:42:21.993Z,2.58
2022-09-24T12:44:56.172Z,2.72
2022-09-24T12:47:26.953Z,2.60
2022-09-24T12:50:00.014Z,3.00
2022-09-24T12:52:45.286Z,2.53
2022-09-24T12:55:22.277Z,2.67
2022-09-24T12:57:56.363Z,2.55
2022-09-24T13:00:42.600Z,2.78
2022-09-24T13:03:33.700Z,2.75
2022-09-24T13:06:02.449Z,2.95
2022-09-24T13:08:46.014Z,1.90
2022-09-24T13:11:30.249Z,1.83
2022-09-24T13:14:19.542Z,2.08
2022-09-24T13:16:50.851Z,2.28
2022-09-24T13:19:36.637Z,2.05
2022-09-24T13:22:05.212Z,1.95
2022-09-24T13:24:46.719Z,2.25
2022-09-24T13:27:38.073Z,2.00
2022-09-24T13:30:18.142Z,1.92
2022-09-24T13:32:52.836Z,1.77
2022-09-24T13:35:26.110Z,1.90
2022-09-24T13:38:02.937Z,1.70
2022-09-24T13:40:41.128Z,1.92
2022-09-24T13:43:19.769Z,1.63
2022-09-24T13:45:48.763Z,2.08
2022-09-24T13:48:26.814Z,2.40
2022-09-24T13:50:55.731Z,2.20
2022-09-24T13:53:31.097Z,2.08
2022-09-24T13:56:06.038Z,2.40
2022-09-24T13:58:36.299Z,2.45
2022-09-24T14:01:11.880Z,2.70
2022-09-24T14:03:41.916Z,2.28
2022-09-24T14:06:16.379Z,2.30
2022-09-24T14:08:47.604Z,2.45
2022-09-24T14:11:21.031Z,2.38
2022-09-24T14:13:49.814Z,2.47
2022-09-24T14:16:20.000Z,2.33
2022-09-24T14:18:48.863Z,2.58
2022-09-24T14:21:24.041Z,2.50
2022-09-24T14:23:56.150Z,2.75
2022-09-24T14:26:30.294Z,2.92
2022-09-24T14:29:01.671Z,2.60
2022-09-24T14:31:32.293Z,3.47
2022-09-24T14:34:06.156Z,2.90
2022-09-24T14:36:37.612Z,2.88
2022-09-24T14:39:07.319Z,3.30
2022-09-24T14:41:37.984Z,3.00
2022-09-24T14:44:10.013Z,3.20
2022-09-24T14:46:49.057Z,3.38
2022-09-24T14:49:23.441Z,3.83
2022-09-24T14:51:57.530Z,3.20
2022-09-24T14:54:34.100Z,3.00
2022-09-24T14:57:25.816Z,3.40
2022-09-24T14:59:54.545Z,3.40
2022-09-24T15:02:27.693Z,3.67
2022-09-24T15:05:04.865Z,3.00
2022-09-24T15:07:35.511Z,3.03
2022-09-24T15:10:07.086Z,3.10
2022-09-24T15:12:39.225Z,3.10
2022-09-24T15:15:29.129Z,3.30
2022-09-24T15:17:57.748Z,3.17
2022-09-24T15:20:25.937Z,3.13
2022-09-24T15:22:54.320Z,3.30
2022-09-24T15:25:25.359Z,3.03
2022-09-24T15:27:55.145Z,2.73
2022-09-24T15:30:25.972Z,2.67
2022-09-24T15:32:54.015Z,3.10
2022-09-24T15:35:24.325Z,2.80
2022-09-24T15:37:53.114Z,3.10
2022-09-24T15:40:29.548Z,2.60
2022-09-24T15:42:59.308Z,2.90
2022-09-24T15:45:27.431Z,2.23
2022-09-24T15:47:56.426Z,2.80
2022-09-24T15:50:26.327Z,2.87
2022-09-24T15:52:57.029Z,13.27
2022-09-24T15:55:27.022Z,23.27
2022-09-24T15:57:55.653Z,3.23
2022-09-24T16:00:26.377Z,3.47
2022-09-24T16:02:56.604Z,3.17
2022-09-24T16:05:25.316Z,2.53
2022-09-24T16:07:53.983Z,2.70
2022-09-24T16:10:22.912Z,2.97
2022-09-24T16:12:51.112Z,2.80
2022-09-24T16:15:21.810Z,2.70
2022-09-24T16:17:51.886Z,2.73
2022-09-24T16:20:20.704Z,2.90
2022-09-24T16:22:49.050Z,3.00
2022-09-24T16:25:17.470Z,3.27
2022-09-24T16:27:45.931Z,2.77
2022-09-24T16:30:14.497Z,2.70
2022-09-24T16:32:44.253Z,2.93
2022-09-24T16:35:13.824Z,2.70
2022-09-24T16:37:42.539Z,2.80
2022-09-24T16:40:12.275Z,3.10
2022-09-24T16:42:41.687Z,3.00
2022-09-24T16:45:12.663Z,2.90
2022-09-24T16:47:40.817Z,3.00
2022-09-24T16:50:11.022Z,5.50
2022-09-24T16:52:40.807Z,3.07
2022-09-24T16:55:10.490Z,3.13
2022-09-24T16:57:38.960Z,2.93
2022-09-24T17:00:09.341Z,4.80
2022-09-24T17:02:38.400Z,7.87
2022-09-24T17:05:08.174Z,9.30
2022-09-24T17:07:36.834Z,7.87
2022-09-24T17:10:16.132Z,8.20
2022-09-24T17:12:46.502Z,12.87
2022-09-24T17:15:15.905Z,13.53
2022-09-24T17:17:49.927Z,18.70
2022-09-24T17:20:19.420Z,10.23
2022-09-24T17:22:52.684Z,3.30
2022-09-24T17:25:22.191Z,2.50
2022-09-24T17:27:51.839Z,2.33
2022-09-24T17:30:20.331Z,3.37
2022-09-24T17:32:48.900Z,2.90
2022-09-24T17:35:17.978Z,2.83
2022-09-24T17:37:46.680Z,3.00
2022-09-24T17:40:22.947Z,4.03
2022-09-24T17:42:53.591Z,4.60
2022-09-24T17:45:22.879Z,3.40
2022-09-24T17:48:01.230Z,3.17
2022-09-24T17:50:30.052Z,4.03
2022-09-24T17:53:00.160Z,4.17
2022-09-24T17:55:28.555Z,3.90
2022-09-24T17:57:58.086Z,3.40
2022-09-24T18:00:26.171Z,4.07
2022-09-24T18:02:55.751Z,3.60
2022-09-24T18:05:24.171Z,3.70
2022-09-24T18:07:52.578Z,3.37
2022-09-24T18:10:21.117Z,3.50
2022-09-24T18:12:49.220Z,3.60
2022-09-24T18:15:19.032Z,3.57
2022-09-24T18:17:49.504Z,3.20
2022-09-24T18:20:18.255Z,3.27
2022-09-24T18:22:47.341Z,3.40
2022-09-24T18:25:15.632Z,3.70
2022-09-24T18:27:45.586Z,3.40
2022-09-24T18:30:15.869Z,3.47
2022-09-24T18:32:47.828Z,4.57
2022-09-24T18:35:18.106Z,4.90
2022-09-24T18:37:46.788Z,5.00
2022-09-24T18:40:18.552Z,6.23
2022-09-24T18:42:47.359Z,6.63
2022-09-24T18:45:15.629Z,5.60
2022-09-24T18:47:44.019Z,6.37
2022-09-24T18:50:13.987Z,4.53
2022-09-24T18:52:42.309Z,4.93
2022-09-24T18:55:11.936Z,3.87
2022-09-24T18:57:40.116Z,4.00
2022-09-24T19:00:30.825Z,4.60
2022-09-24T19:03:00.034Z,4.27
2022-09-24T19:05:30.340Z,5.10
2022-09-24T19:07:59.380Z,5.10
2022-09-24T19:10:27.519Z,5.27
2022-09-24T19:12:55.812Z,5.20
2022-09-24T19:15:25.964Z,5.07
2022-09-24T19:17:54.362Z,5.57
2022-09-24T19:20:22.613Z,6.13
2022-09-24T19:23:00.282Z,6.70
2022-09-24T19:25:29.159Z,7.50
2022-09-24T19:27:58.095Z,9.33
2022-09-24T19:30:27.805Z,10.40
2022-09-24T19:32:56.228Z,11.60
2022-09-24T19:35:24.634Z,13.83
2022-09-24T19:37:54.740Z,14.80
2022-09-24T19:40:23.601Z,13.10
2022-09-24T19:42:51.781Z,12.47
2022-09-24T19:45:19.948Z,13.67
2022-09-24T19:47:48.886Z,13.00
2022-09-24T19:50:17.987Z,11.37
2022-09-24T19:52:48.995Z,11.07
2022-09-24T19:55:18.982Z,11.20
2022-09-24T19:57:47.194Z,12.43
2022-09-24T20:00:16.455Z,12.17
2022-09-24T20:02:45.081Z,11.37
2022-09-24T20:05:15.881Z,10.70
2022-09-24T20:07:46.049Z,10.80
2022-09-24T20:10:14.719Z,12.47
2022-09-24T20:12:46.805Z,12.40
2022-09-24T20:15:15.241Z,11.33
2022-09-24T20:17:43.586Z,13.57
2022-09-24T20:20:11.995Z,11.83
2022-09-24T20:22:40.308Z,20.57
2022-09-24T20:25:11.857Z,12.20
2022-09-24T20:27:55.478Z,11.67
2022-09-24T20:30:25.274Z,11.40
2022-09-24T20:32:53.711Z,12.17
2022-09-24T20:35:22.036Z,12.67
2022-09-24T20:37:50.295Z,11.53
2022-09-24T20:40:20.458Z,11.53
2022-09-24T20:42:49.451Z,12.17
2022-09-24T20:45:18.043Z,12.17
2022-09-24T20:47:50.021Z,11.13
2022-09-24T20:50:19.509Z,10.90
2022-09-24T20:52:47.988Z,11.27
2022-09-24T20:55:16.806Z,11.53
2022-09-24T20:57:46.181Z,11.57
2022-09-24T21:00:15.587Z,11.67
2022-09-24T21:02:44.630Z,11.13
2022-09-24T21:05:14.657Z,11.73
2022-09-24T21:07:42.907Z,12.33
2022-09-24T21:10:13.209Z,13.27
2022-09-24T21:12:41.651Z,13.70
2022-09-24T21:15:13.925Z,14.33
2022-09-24T21:17:59.460Z,13.87
2022-09-24T21:20:38.175Z,14.50
2022-09-24T21:23:07.660Z,13.30
2022-09-24T21:25:53.950Z,13.90
2022-09-24T21:28:23.137Z,15.10
2022-09-24T21:30:58.296Z,14.07
2022-09-24T21:33:26.805Z,14.33
2022-09-24T21:35:59.017Z,16.33
2022-09-24T21:38:27.381Z,16.10
2022-09-24T21:40:57.568Z,15.73
2022-09-24T21:43:34.467Z,16.13
2022-09-24T21:46:05.216Z,14.57
2022-09-24T21:48:34.583Z,14.97
2022-09-24T21:51:09.295Z,14.60
2022-09-24T21:53:39.335Z,15.03
2022-09-24T21:56:08.810Z,16.00
2022-09-24T21:58:39.172Z,15.07
2022-09-24T22:01:14.191Z,14.90
2022-09-24T22:03:43.262Z,15.43
2022-09-24T22:06:14.441Z,15.57
2022-09-24T22:08:43.324Z,14.77
2022-09-24T22:11:13.559Z,14.63
2022-09-24T22:13:42.663Z,14.53
2022-09-24T22:16:12.317Z,16.07
2022-09-24T22:18:40.879Z,15.73
2022-09-24T22:21:11.332Z,15.70
2022-09-24T22:23:41.764Z,14.77
2022-09-24T22:26:11.513Z,15.07
2022-09-24T22:28:39.764Z,14.80
2022-09-24T22:31:09.660Z,16.90
2022-09-24T22:33:56.174Z,15.00
2022-09-24T22:36:28.704Z,16.33
2022-09-24T22:39:00.405Z,15.77
2022-09-24T22:41:30.074Z,15.57
2022-09-24T22:44:00.232Z,15.00
2022-09-24T22:46:28.771Z,15.47
2022-09-24T22:48:58.146Z,14.17
2022-09-24T22:51:27.903Z,15.90
2022-09-24T22:53:57.859Z,14.73
2022-09-24T22:56:27.517Z,15.50
2022-09-24T22:58:57.674Z,16.57
2022-09-24T23:01:28.827Z,15.67
2022-09-24T23:03:57.926Z,15.17
2022-09-24T23:06:26.616Z,16.07
2022-09-24T23:08:56.383Z,16.13
2022-09-24T23:11:28.613Z,16.73
2022-09-24T23:13:58.396Z,16.87
2022-09-24T23:16:28.218Z,18.17
2022-09-24T23:18:58.871Z,15.93
2022-09-24T23:21:30.641Z,16.57
2022-09-24T23:24:00.434Z,17.53
2022-09-24T23:26:31.636Z,16.43
2022-09-24T23:29:01.376Z,16.60
2022-09-24T23:31:31.460Z,16.17
2022-09-24T23:34:01.462Z,15.60
2022-09-24T23:36:32.293Z,15.60
2022-09-24T23:39:01.699Z,14.17
2022-09-24T23:41:33.592Z,14.47
2022-09-24T23:44:03.488Z,13.47
2022-09-24T23:46:34.008Z,13.90
2022-09-24T23:49:02.404Z,13.90
2022-09-24T23:51:30.806Z,13.03
2022-09-24T23:54:00.478Z,13.20
2022-09-24T23:56:29.678Z,11.60
2022-09-24T23:59:01.970Z,12.30
